sensor_id;sensor_type;location;lat;lon;timestamp;pressure;altitude;pressure_sealevel;temperature;humidity
83625;BME280;73589;41.158;-73.238;2024-02-21T00:00:47;103170.72;;;21.54;30.71
83625;BME280;73589;41.158;-73.238;2024-02-21T00:03:17;103171.52;;;21.51;30.77
83625;BME280;73589;41.158;-73.238;2024-02-21T00:05:48;103165.47;;;21.46;30.85
83625;BME280;73589;41.158;-73.238;2024-02-21T00:08:18;103165.08;;;21.48;30.83
83625;BME280;73589;41.158;-73.238;2024-02-21T00:10:50;103168.20;;;21.48;30.80
83625;BME280;73589;41.158;-73.238;2024-02-21T00:13:21;103169.66;;;21.52;30.67
83625;BME280;73589;41.158;-73.238;2024-02-21T00:15:50;103166.48;;;21.50;30.75
83625;BME280;73589;41.158;-73.238;2024-02-21T00:18:22;103165.46;;;21.51;30.79
83625;BME280;73589;41.158;-73.238;2024-02-21T00:20:52;103166.27;;;21.50;30.83
83625;BME280;73589;41.158;-73.238;2024-02-21T00:23:22;103165.76;;;21.45;30.91
83625;BME280;73589;41.158;-73.238;2024-02-21T00:25:52;103165.20;;;21.44;30.97
83625;BME280;73589;41.158;-73.238;2024-02-21T00:28:22;103169.84;;;21.47;31.04
83625;BME280;73589;41.158;-73.238;2024-02-21T00:30:52;103172.20;;;21.47;30.90
83625;BME280;73589;41.158;-73.238;2024-02-21T00:33:22;103171.06;;;21.46;30.91
83625;BME280;73589;41.158;-73.238;2024-02-21T00:35:52;103167.48;;;21.48;30.93
83625;BME280;73589;41.158;-73.238;2024-02-21T00:38:23;103173.11;;;21.49;30.94
83625;BME280;73589;41.158;-73.238;2024-02-21T00:40:53;103175.40;;;21.49;31.01
83625;BME280;73589;41.158;-73.238;2024-02-21T00:43:23;103171.84;;;21.45;31.18
83625;BME280;73589;41.158;-73.238;2024-02-21T00:45:54;103172.80;;;21.39;31.31
83625;BME280;73589;41.158;-73.238;2024-02-21T00:48:25;103177.22;;;21.53;31.11
83625;BME280;73589;41.158;-73.238;2024-02-21T00:50:54;103178.25;;;21.51;31.02
83625;BME280;73589;41.158;-73.238;2024-02-21T00:53:25;103175.89;;;21.50;31.09
83625;BME280;73589;41.158;-73.238;2024-02-21T00:55:56;103176.08;;;21.51;31.14
83625;BME280;73589;41.158;-73.238;2024-02-21T00:58:26;103176.35;;;21.48;31.19
83625;BME280;73589;41.158;-73.238;2024-02-21T01:00:56;103175.96;;;21.50;31.15
83625;BME280;73589;41.158;-73.238;2024-02-21T01:03:27;103177.45;;;21.49;31.20
83625;BME280;73589;41.158;-73.238;2024-02-21T01:05:58;103177.37;;;21.46;31.31
83625;BME280;73589;41.158;-73.238;2024-02-21T01:08:28;103182.57;;;21.47;31.25
83625;BME280;73589;41.158;-73.238;2024-02-21T01:10:58;103178.58;;;21.51;31.18
83625;BME280;73589;41.158;-73.238;2024-02-21T01:13:27;103180.45;;;21.50;31.14
83625;BME280;73589;41.158;-73.238;2024-02-21T01:15:58;103179.91;;;21.49;31.20
83625;BME280;73589;41.158;-73.238;2024-02-21T01:18:29;103176.78;;;21.49;31.19
83625;BME280;73589;41.158;-73.238;2024-02-21T01:20:59;103177.97;;;21.49;31.17
83625;BME280;73589;41.158;-73.238;2024-02-21T01:23:30;103181.24;;;21.48;31.35
83625;BME280;73589;41.158;-73.238;2024-02-21T01:26:00;103181.58;;;21.40;31.44
83625;BME280;73589;41.158;-73.238;2024-02-21T01:28:31;103187.20;;;21.49;31.30
83625;BME280;73589;41.158;-73.238;2024-02-21T01:31:02;103193.96;;;21.49;31.23
83625;BME280;73589;41.158;-73.238;2024-02-21T01:33:31;103202.03;;;21.48;31.27
83625;BME280;73589;41.158;-73.238;2024-02-21T01:36:02;103202.31;;;21.47;31.31
83625;BME280;73589;41.158;-73.238;2024-02-21T01:38:32;103202.94;;;21.45;31.35
83625;BME280;73589;41.158;-73.238;2024-02-21T01:41:02;103207.39;;;21.48;31.24
83625;BME280;73589;41.158;-73.238;2024-02-21T01:43:33;103209.40;;;21.37;31.48
83625;BME280;73589;41.158;-73.238;2024-02-21T01:46:03;103207.18;;;21.37;31.53
83625;BME280;73589;41.158;-73.238;2024-02-21T01:48:33;103209.99;;;21.45;31.37
83625;BME280;73589;41.158;-73.238;2024-02-21T01:51:04;103217.08;;;21.44;31.34
83625;BME280;73589;41.158;-73.238;2024-02-21T01:53:36;103215.29;;;21.36;31.49
83625;BME280;73589;41.158;-73.238;2024-02-21T01:56:06;103212.37;;;21.41;31.43
83625;BME280;73589;41.158;-73.238;2024-02-21T01:58:37;103215.69;;;21.39;31.50
83625;BME280;73589;41.158;-73.238;2024-02-21T02:01:05;103216.49;;;21.21;31.84
83625;BME280;73589;41.158;-73.238;2024-02-21T02:03:36;103214.58;;;20.82;32.63
83625;BME280;73589;41.158;-73.238;2024-02-21T02:06:07;103217.14;;;21.23;32.24
83625;BME280;73589;41.158;-73.238;2024-02-21T02:08:37;103224.11;;;21.39;31.83
83625;BME280;73589;41.158;-73.238;2024-02-21T02:11:08;103219.58;;;21.44;31.67
83625;BME280;73589;41.158;-73.238;2024-02-21T02:13:38;103217.53;;;21.43;31.77
83625;BME280;73589;41.158;-73.238;2024-02-21T02:16:08;103220.32;;;21.42;32.01
83625;BME280;73589;41.158;-73.238;2024-02-21T02:18:39;103214.95;;;21.42;32.11
83625;BME280;73589;41.158;-73.238;2024-02-21T02:21:15;103214.79;;;21.21;33.30
83625;BME280;73589;41.158;-73.238;2024-02-21T02:23:40;103216.27;;;21.15;33.68
83625;BME280;73589;41.158;-73.238;2024-02-21T02:26:11;103220.03;;;21.38;33.30
83625;BME280;73589;41.158;-73.238;2024-02-21T02:28:40;103221.33;;;21.41;33.20
83625;BME280;73589;41.158;-73.238;2024-02-21T02:31:10;103223.04;;;21.43;32.70
83625;BME280;73589;41.158;-73.238;2024-02-21T02:33:42;103222.28;;;21.42;32.67
83625;BME280;73589;41.158;-73.238;2024-02-21T02:36:11;103220.59;;;21.16;33.36
83625;BME280;73589;41.158;-73.238;2024-02-21T02:38:41;103220.84;;;20.91;34.12
83625;BME280;73589;41.158;-73.238;2024-02-21T02:41:12;103221.77;;;21.20;33.75
83625;BME280;73589;41.158;-73.238;2024-02-21T02:43:42;103224.73;;;21.33;33.29
83625;BME280;73589;41.158;-73.238;2024-02-21T02:46:13;103227.61;;;21.37;33.05
83625;BME280;73589;41.158;-73.238;2024-02-21T02:48:44;103220.13;;;21.37;32.84
83625;BME280;73589;41.158;-73.238;2024-02-21T02:51:14;103220.68;;;21.38;33.15
83625;BME280;73589;41.158;-73.238;2024-02-21T02:53:44;103219.53;;;21.19;33.48
83625;BME280;73589;41.158;-73.238;2024-02-21T02:56:15;103221.83;;;21.34;33.21
83625;BME280;73589;41.158;-73.238;2024-02-21T02:58:45;103225.30;;;21.41;33.06
83625;BME280;73589;41.158;-73.238;2024-02-21T03:01:16;103223.22;;;21.39;32.83
83625;BME280;73589;41.158;-73.238;2024-02-21T03:03:46;103221.84;;;21.40;32.79
83625;BME280;73589;41.158;-73.238;2024-02-21T03:06:17;103220.53;;;21.41;32.69
83625;BME280;73589;41.158;-73.238;2024-02-21T03:08:47;103216.89;;;21.40;32.71
83625;BME280;73589;41.158;-73.238;2024-02-21T03:11:18;103210.78;;;21.33;32.81
83625;BME280;73589;41.158;-73.238;2024-02-21T03:13:49;103212.71;;;20.94;33.78
83625;BME280;73589;41.158;-73.238;2024-02-21T03:16:19;103214.85;;;20.94;33.74
83625;BME280;73589;41.158;-73.238;2024-02-21T03:18:49;103220.76;;;21.28;33.08
83625;BME280;73589;41.158;-73.238;2024-02-21T03:21:20;103222.01;;;21.33;33.04
83625;BME280;73589;41.158;-73.238;2024-02-21T03:23:51;103227.19;;;21.34;32.78
83625;BME280;73589;41.158;-73.238;2024-02-21T03:26:21;103226.70;;;21.26;32.88
83625;BME280;73589;41.158;-73.238;2024-02-21T03:28:50;103230.52;;;20.77;33.91
83625;BME280;73589;41.158;-73.238;2024-02-21T03:31:21;103227.09;;;20.85;33.79
83625;BME280;73589;41.158;-73.238;2024-02-21T03:33:51;103224.92;;;21.17;33.20
83625;BME280;73589;41.158;-73.238;2024-02-21T03:36:21;103222.83;;;21.20;33.15
83625;BME280;73589;41.158;-73.238;2024-02-21T03:38:53;103226.96;;;21.25;32.90
83625;BME280;73589;41.158;-73.238;2024-02-21T03:41:23;103226.88;;;20.95;33.38
83625;BME280;73589;41.158;-73.238;2024-02-21T03:43:53;103225.93;;;20.76;33.70
83625;BME280;73589;41.158;-73.238;2024-02-21T03:46:24;103224.00;;;21.26;32.94
83625;BME280;73589;41.158;-73.238;2024-02-21T03:48:55;103223.70;;;21.29;32.76
83625;BME280;73589;41.158;-73.238;2024-02-21T03:51:25;103227.40;;;21.31;32.64
83625;BME280;73589;41.158;-73.238;2024-02-21T03:53:56;103226.30;;;21.31;32.59
83625;BME280;73589;41.158;-73.238;2024-02-21T03:56:27;103224.33;;;21.30;32.61
83625;BME280;73589;41.158;-73.238;2024-02-21T03:58:58;103225.27;;;20.67;33.78
83625;BME280;73589;41.158;-73.238;2024-02-21T04:01:28;103228.85;;;20.78;33.61
83625;BME280;73589;41.158;-73.238;2024-02-21T04:03:59;103231.76;;;21.17;32.99
83625;BME280;73589;41.158;-73.238;2024-02-21T04:06:29;103231.02;;;21.18;32.96
83625;BME280;73589;41.158;-73.238;2024-02-21T04:09:00;103232.38;;;21.21;32.67
83625;BME280;73589;41.158;-73.238;2024-02-21T04:11:31;103233.00;;;21.17;32.71
83625;BME280;73589;41.158;-73.238;2024-02-21T04:14:01;103232.79;;;20.65;33.63
83625;BME280;73589;41.158;-73.238;2024-02-21T04:16:31;103225.97;;;20.59;33.69
83625;BME280;73589;41.158;-73.238;2024-02-21T04:19:02;103220.25;;;21.09;33.01
83625;BME280;73589;41.158;-73.238;2024-02-21T04:21:33;103214.50;;;21.14;32.89
83625;BME280;73589;41.158;-73.238;2024-02-21T04:24:04;103213.93;;;21.13;32.65
83625;BME280;73589;41.158;-73.238;2024-02-21T04:26:34;103208.96;;;20.85;33.10
83625;BME280;73589;41.158;-73.238;2024-02-21T04:29:04;103210.24;;;20.65;33.47
83625;BME280;73589;41.158;-73.238;2024-02-21T04:31:35;103211.47;;;21.06;32.84
83625;BME280;73589;41.158;-73.238;2024-02-21T04:34:07;103210.53;;;21.08;32.84
83625;BME280;73589;41.158;-73.238;2024-02-21T04:36:36;103213.52;;;21.09;32.66
83625;BME280;73589;41.158;-73.238;2024-02-21T04:39:07;103211.06;;;20.73;33.27
83625;BME280;73589;41.158;-73.238;2024-02-21T04:41:38;103214.12;;;20.59;33.46
83625;BME280;73589;41.158;-73.238;2024-02-21T04:44:08;103212.40;;;20.92;33.00
83625;BME280;73589;41.158;-73.238;2024-02-21T04:46:42;103221.86;;;21.01;32.78
83625;BME280;73589;41.158;-73.238;2024-02-21T04:49:10;103217.02;;;21.08;32.45
83625;BME280;73589;41.158;-73.238;2024-02-21T04:51:41;103213.42;;;21.12;32.39
83625;BME280;73589;41.158;-73.238;2024-02-21T04:54:11;103203.93;;;20.93;32.68
83625;BME280;73589;41.158;-73.238;2024-02-21T04:56:42;103207.30;;;20.62;33.28
83625;BME280;73589;41.158;-73.238;2024-02-21T04:59:12;103210.00;;;20.71;33.03
83625;BME280;73589;41.158;-73.238;2024-02-21T05:01:42;103213.18;;;21.08;32.46
83625;BME280;73589;41.158;-73.238;2024-02-21T05:04:13;103211.90;;;21.11;32.44
83625;BME280;73589;41.158;-73.238;2024-02-21T05:06:44;103213.63;;;21.12;32.34
83625;BME280;73589;41.158;-73.238;2024-02-21T05:09:14;103214.65;;;21.03;32.54
83625;BME280;73589;41.158;-73.238;2024-02-21T05:11:46;103211.09;;;20.48;33.41
83625;BME280;73589;41.158;-73.238;2024-02-21T05:14:15;103209.93;;;20.41;33.52
83625;BME280;73589;41.158;-73.238;2024-02-21T05:16:46;103211.54;;;20.93;32.69
83625;BME280;73589;41.158;-73.238;2024-02-21T05:19:17;103211.22;;;20.97;32.63
83625;BME280;73589;41.158;-73.238;2024-02-21T05:21:48;103216.33;;;21.00;32.40
83625;BME280;73589;41.158;-73.238;2024-02-21T05:24:18;103213.35;;;20.97;32.53
83625;BME280;73589;41.158;-73.238;2024-02-21T05:26:49;103212.53;;;20.45;33.31
83625;BME280;73589;41.158;-73.238;2024-02-21T05:29:19;103216.01;;;20.54;33.24
83625;BME280;73589;41.158;-73.238;2024-02-21T05:31:55;103217.83;;;20.87;32.71
83625;BME280;73589;41.158;-73.238;2024-02-21T05:34:21;103223.00;;;20.96;32.53
83625;BME280;73589;41.158;-73.238;2024-02-21T05:36:51;103217.47;;;21.02;32.25
83625;BME280;73589;41.158;-73.238;2024-02-21T05:39:20;103218.52;;;21.03;32.27
83625;BME280;73589;41.158;-73.238;2024-02-21T05:41:51;103218.73;;;20.53;33.11
83625;BME280;73589;41.158;-73.238;2024-02-21T05:44:21;103212.35;;;20.46;33.20
83625;BME280;73589;41.158;-73.238;2024-02-21T05:46:52;103219.74;;;20.95;32.50
83625;BME280;73589;41.158;-73.238;2024-02-21T05:49:22;103217.77;;;20.99;32.23
83625;BME280;73589;41.158;-73.238;2024-02-21T05:51:53;103218.63;;;21.02;32.20
83625;BME280;73589;41.158;-73.238;2024-02-21T05:54:24;103222.03;;;20.94;32.29
83625;BME280;73589;41.158;-73.238;2024-02-21T05:56:54;103224.75;;;20.50;33.05
83625;BME280;73589;41.158;-73.238;2024-02-21T05:59:25;103227.07;;;20.20;33.53
83625;BME280;73589;41.158;-73.238;2024-02-21T06:01:57;103223.02;;;20.37;33.34
83625;BME280;73589;41.158;-73.238;2024-02-21T06:04:26;103220.54;;;20.74;32.74
83625;BME280;73589;41.158;-73.238;2024-02-21T06:06:57;103217.82;;;20.97;32.33
83625;BME280;73589;41.158;-73.238;2024-02-21T06:09:27;103212.46;;;20.94;32.22
83625;BME280;73589;41.158;-73.238;2024-02-21T06:11:58;103213.25;;;20.98;32.18
83625;BME280;73589;41.158;-73.238;2024-02-21T06:14:28;103208.47;;;20.46;33.04
83625;BME280;73589;41.158;-73.238;2024-02-21T06:16:59;103205.56;;;20.48;33.03
83625;BME280;73589;41.158;-73.238;2024-02-21T06:19:28;103207.80;;;20.88;32.38
83625;BME280;73589;41.158;-73.238;2024-02-21T06:21:58;103202.48;;;20.92;32.32
83625;BME280;73589;41.158;-73.238;2024-02-21T06:24:29;103194.92;;;20.93;32.17
83625;BME280;73589;41.158;-73.238;2024-02-21T06:26:59;103191.53;;;20.90;32.21
83625;BME280;73589;41.158;-73.238;2024-02-21T06:29:30;103192.58;;;20.45;33.07
83625;BME280;73589;41.158;-73.238;2024-02-21T06:32:01;103194.08;;;20.41;33.08
83625;BME280;73589;41.158;-73.238;2024-02-21T06:34:32;103193.50;;;20.75;32.52
83625;BME280;73589;41.158;-73.238;2024-02-21T06:37:01;103198.66;;;20.78;32.40
83625;BME280;73589;41.158;-73.238;2024-02-21T06:39:32;103199.13;;;20.86;32.15
83625;BME280;73589;41.158;-73.238;2024-02-21T06:42:08;103198.05;;;20.90;32.10
83625;BME280;73589;41.158;-73.238;2024-02-21T06:44:33;103196.36;;;20.69;32.47
83625;BME280;73589;41.158;-73.238;2024-02-21T06:47:04;103201.03;;;20.23;33.23
83625;BME280;73589;41.158;-73.238;2024-02-21T06:49:34;103195.06;;;20.79;32.43
83625;BME280;73589;41.158;-73.238;2024-02-21T06:52:05;103189.70;;;20.85;32.32
83625;BME280;73589;41.158;-73.238;2024-02-21T06:54:36;103186.63;;;20.87;32.16
83625;BME280;73589;41.158;-73.238;2024-02-21T06:57:07;103182.37;;;20.83;32.21
83625;BME280;73589;41.158;-73.238;2024-02-21T06:59:37;103185.34;;;20.08;33.45
83625;BME280;73589;41.158;-73.238;2024-02-21T07:02:08;103181.86;;;20.16;33.32
83625;BME280;73589;41.158;-73.238;2024-02-21T07:04:38;103179.89;;;20.71;32.56
83625;BME280;73589;41.158;-73.238;2024-02-21T07:07:09;103176.78;;;20.77;32.26
83625;BME280;73589;41.158;-73.238;2024-02-21T07:09:39;103179.54;;;20.81;32.17
83625;BME280;73589;41.158;-73.238;2024-02-21T07:12:09;103175.46;;;20.80;32.16
83625;BME280;73589;41.158;-73.238;2024-02-21T07:14:39;103173.78;;;20.25;33.03
83625;BME280;73589;41.158;-73.238;2024-02-21T07:17:09;103170.71;;;20.02;33.47
83625;BME280;73589;41.158;-73.238;2024-02-21T07:19:40;103166.32;;;20.75;32.43
83625;BME280;73589;41.158;-73.238;2024-02-21T07:22:11;103172.03;;;20.72;32.37
83625;BME280;73589;41.158;-73.238;2024-02-21T07:24:40;103168.88;;;20.79;32.08
83625;BME280;73589;41.158;-73.238;2024-02-21T07:27:13;103168.98;;;20.79;32.11
83625;BME280;73589;41.158;-73.238;2024-02-21T07:29:42;103165.19;;;20.38;32.79
83625;BME280;73589;41.158;-73.238;2024-02-21T07:32:13;103157.77;;;20.25;33.03
83625;BME280;73589;41.158;-73.238;2024-02-21T07:34:43;103157.36;;;20.51;32.65
83625;BME280;73589;41.158;-73.238;2024-02-21T07:37:13;103158.99;;;20.77;32.11
83625;BME280;73589;41.158;-73.238;2024-02-21T07:39:44;103160.14;;;20.76;32.18
83625;BME280;73589;41.158;-73.238;2024-02-21T07:42:15;103156.77;;;20.73;32.13
83625;BME280;73589;41.158;-73.238;2024-02-21T07:44:46;103149.67;;;20.33;32.70
83625;BME280;73589;41.158;-73.238;2024-02-21T07:47:16;103149.92;;;20.17;33.04
83625;BME280;73589;41.158;-73.238;2024-02-21T07:49:47;103149.56;;;20.43;32.77
83625;BME280;73589;41.158;-73.238;2024-02-21T07:52:17;103148.48;;;20.53;32.46
83625;BME280;73589;41.158;-73.238;2024-02-21T07:54:48;103152.98;;;20.72;32.14
83625;BME280;73589;41.158;-73.238;2024-02-21T07:57:19;103154.38;;;20.74;32.05
83625;BME280;73589;41.158;-73.238;2024-02-21T07:59:49;103153.29;;;20.54;32.37
83625;BME280;73589;41.158;-73.238;2024-02-21T08:02:20;103154.60;;;20.32;32.79
83625;BME280;73589;41.158;-73.238;2024-02-21T08:04:52;103155.07;;;20.64;32.33
83625;BME280;73589;41.158;-73.238;2024-02-21T08:07:22;103155.75;;;20.73;32.06
83625;BME280;73589;41.158;-73.238;2024-02-21T08:09:52;103153.89;;;20.74;32.02
83625;BME280;73589;41.158;-73.238;2024-02-21T08:12:24;103145.67;;;20.68;32.09
83625;BME280;73589;41.158;-73.238;2024-02-21T08:14:53;103147.89;;;20.19;32.94
83625;BME280;73589;41.158;-73.238;2024-02-21T08:17:25;103149.20;;;19.89;33.36
83625;BME280;73589;41.158;-73.238;2024-02-21T08:19:55;103151.71;;;20.54;32.48
83625;BME280;73589;41.158;-73.238;2024-02-21T08:22:26;103149.90;;;20.58;32.40
83625;BME280;73589;41.158;-73.238;2024-02-21T08:24:57;103151.10;;;20.63;32.16
83625;BME280;73589;41.158;-73.238;2024-02-21T08:27:27;103145.82;;;20.64;32.14
83625;BME280;73589;41.158;-73.238;2024-02-21T08:29:57;103140.43;;;20.01;33.10
83625;BME280;73589;41.158;-73.238;2024-02-21T08:32:29;103140.55;;;20.47;32.47
83625;BME280;73589;41.158;-73.238;2024-02-21T08:34:58;103143.26;;;20.61;32.20
83625;BME280;73589;41.158;-73.238;2024-02-21T08:37:28;103141.08;;;20.65;31.99
83625;BME280;73589;41.158;-73.238;2024-02-21T08:39:59;103141.61;;;20.67;31.98
83625;BME280;73589;41.158;-73.238;2024-02-21T08:42:29;103137.42;;;20.52;32.24
83625;BME280;73589;41.158;-73.238;2024-02-21T08:45:01;103139.90;;;20.16;32.88
83625;BME280;73589;41.158;-73.238;2024-02-21T08:47:30;103143.82;;;20.09;33.04
83625;BME280;73589;41.158;-73.238;2024-02-21T08:50:01;103143.44;;;20.58;32.21
83625;BME280;73589;41.158;-73.238;2024-02-21T08:52:32;103141.92;;;20.59;32.12
83625;BME280;73589;41.158;-73.238;2024-02-21T08:55:01;103140.80;;;20.60;32.04
83625;BME280;73589;41.158;-73.238;2024-02-21T08:57:31;103137.18;;;20.59;32.06
83625;BME280;73589;41.158;-73.238;2024-02-21T09:00:04;103137.75;;;20.27;32.67
83625;BME280;73589;41.158;-73.238;2024-02-21T09:02:32;103139.64;;;20.37;32.52
83625;BME280;73589;41.158;-73.238;2024-02-21T09:05:04;103141.09;;;20.51;32.28
83625;BME280;73589;41.158;-73.238;2024-02-21T09:07:34;103148.25;;;20.62;32.00
83625;BME280;73589;41.158;-73.238;2024-02-21T09:10:04;103146.60;;;20.64;31.94
83625;BME280;73589;41.158;-73.238;2024-02-21T09:12:35;103146.92;;;20.32;32.44
83625;BME280;73589;41.158;-73.238;2024-02-21T09:15:06;103152.60;;;20.09;32.95
83625;BME280;73589;41.158;-73.238;2024-02-21T09:17:35;103156.29;;;20.00;33.09
83625;BME280;73589;41.158;-73.238;2024-02-21T09:20:08;103156.59;;;20.52;32.25
83625;BME280;73589;41.158;-73.238;2024-02-21T09:22:36;103158.31;;;20.54;32.15
83625;BME280;73589;41.158;-73.238;2024-02-21T09:25:07;103159.39;;;20.59;32.00
83625;BME280;73589;41.158;-73.238;2024-02-21T09:27:37;103160.44;;;20.54;32.10
83625;BME280;73589;41.158;-73.238;2024-02-21T09:30:07;103160.67;;;20.04;32.92
83625;BME280;73589;41.158;-73.238;2024-02-21T09:32:38;103170.01;;;20.16;32.77
83625;BME280;73589;41.158;-73.238;2024-02-21T09:35:08;103170.67;;;20.42;32.36
83625;BME280;73589;41.158;-73.238;2024-02-21T09:37:37;103176.78;;;20.53;32.16
83625;BME280;73589;41.158;-73.238;2024-02-21T09:40:10;103176.76;;;20.54;32.04
83625;BME280;73589;41.158;-73.238;2024-02-21T09:42:40;103176.83;;;20.18;32.67
83625;BME280;73589;41.158;-73.238;2024-02-21T09:45:22;103181.77;;;20.16;32.77
83625;BME280;73589;41.158;-73.238;2024-02-21T09:47:48;103190.29;;;20.50;32.22
83625;BME280;73589;41.158;-73.238;2024-02-21T09:50:10;103193.44;;;20.51;32.07
83625;BME280;73589;41.158;-73.238;2024-02-21T09:52:40;103195.02;;;20.53;31.98
83625;BME280;73589;41.158;-73.238;2024-02-21T09:55:11;103190.28;;;20.10;32.66
83625;BME280;73589;41.158;-73.238;2024-02-21T09:57:41;103199.24;;;19.85;33.13
83625;BME280;73589;41.158;-73.238;2024-02-21T10:00:12;103197.48;;;20.26;32.63
83625;BME280;73589;41.158;-73.238;2024-02-21T10:02:42;103199.85;;;20.43;32.29
83625;BME280;73589;41.158;-73.238;2024-02-21T10:05:12;103203.36;;;20.51;31.99
83625;BME280;73589;41.158;-73.238;2024-02-21T10:07:42;103200.22;;;20.53;31.92
83625;BME280;73589;41.158;-73.238;2024-02-21T10:10:14;103209.18;;;19.96;32.95
83625;BME280;73589;41.158;-73.238;2024-02-21T10:12:48;103211.43;;;20.30;32.47
83625;BME280;73589;41.158;-73.238;2024-02-21T10:15:20;103213.62;;;20.49;31.99
83625;BME280;73589;41.158;-73.238;2024-02-21T10:17:46;103216.41;;;20.52;31.95
83625;BME280;73589;41.158;-73.238;2024-02-21T10:20:15;103217.33;;;20.53;31.97
83625;BME280;73589;41.158;-73.238;2024-02-21T10:22:46;103215.63;;;20.46;32.08
83625;BME280;73589;41.158;-73.238;2024-02-21T10:25:16;103215.50;;;20.45;32.22
83625;BME280;73589;41.158;-73.238;2024-02-21T10:27:45;103218.04;;;20.44;32.31
83625;BME280;73589;41.158;-73.238;2024-02-21T10:30:17;103220.10;;;20.40;32.46
83625;BME280;73589;41.158;-73.238;2024-02-21T10:32:51;103221.38;;;20.39;32.43
83625;BME280;73589;41.158;-73.238;2024-02-21T10:37:48;103221.28;;;20.34;32.60
83625;BME280;73589;41.158;-73.238;2024-02-21T10:40:18;103218.50;;;20.35;32.59
83625;BME280;73589;41.158;-73.238;2024-02-21T10:42:48;103212.86;;;20.31;32.60
83625;BME280;73589;41.158;-73.238;2024-02-21T10:45:20;103215.77;;;20.25;32.69
83625;BME280;73589;41.158;-73.238;2024-02-21T10:47:55;103215.56;;;20.28;32.60
83625;BME280;73589;41.158;-73.238;2024-02-21T10:50:19;103220.74;;;20.44;32.22
83625;BME280;73589;41.158;-73.238;2024-02-21T10:52:59;103224.59;;;20.42;32.28
83625;BME280;73589;41.158;-73.238;2024-02-21T10:55:33;103224.87;;;20.41;32.29
83625;BME280;73589;41.158;-73.238;2024-02-21T10:57:52;103225.97;;;20.41;32.34
83625;BME280;73589;41.158;-73.238;2024-02-21T11:00:21;103224.93;;;20.39;32.39
83625;BME280;73589;41.158;-73.238;2024-02-21T11:02:52;103222.21;;;20.36;32.46
83625;BME280;73589;41.158;-73.238;2024-02-21T11:05:24;103221.18;;;20.34;32.57
83625;BME280;73589;41.158;-73.238;2024-02-21T11:07:53;103225.02;;;20.32;32.63
83625;BME280;73589;41.158;-73.238;2024-02-21T11:10:24;103222.03;;;20.32;32.69
83625;BME280;73589;41.158;-73.238;2024-02-21T11:12:53;103216.58;;;20.28;32.66
83625;BME280;73589;41.158;-73.238;2024-02-21T11:15:26;103213.77;;;20.25;32.61
83625;BME280;73589;41.158;-73.238;2024-02-21T11:17:55;103218.96;;;20.37;32.40
83625;BME280;73589;41.158;-73.238;2024-02-21T11:20:32;103213.83;;;20.36;32.38
83625;BME280;73589;41.158;-73.238;2024-02-21T11:22:54;103210.59;;;20.37;32.32
83625;BME280;73589;41.158;-73.238;2024-02-21T11:25:26;103207.08;;;20.38;32.38
83625;BME280;73589;41.158;-73.238;2024-02-21T11:28:01;103205.01;;;20.39;32.37
83625;BME280;73589;41.158;-73.238;2024-02-21T11:30:27;103205.26;;;20.33;32.43
83625;BME280;73589;41.158;-73.238;2024-02-21T11:33:01;103203.46;;;20.30;32.54
83625;BME280;73589;41.158;-73.238;2024-02-21T11:35:32;103194.34;;;20.28;32.61
83625;BME280;73589;41.158;-73.238;2024-02-21T11:37:57;103196.28;;;20.23;32.61
83625;BME280;73589;41.158;-73.238;2024-02-21T11:40:28;103192.05;;;20.23;32.58
83625;BME280;73589;41.158;-73.238;2024-02-21T11:42:59;103193.41;;;20.09;32.57
83625;BME280;73589;41.158;-73.238;2024-02-21T11:45:28;103196.44;;;19.77;33.07
83625;BME280;73589;41.158;-73.238;2024-02-21T11:47:59;103200.64;;;19.74;33.01
83625;BME280;73589;41.158;-73.238;2024-02-21T11:50:30;103195.62;;;20.11;32.32
83625;BME280;73589;41.158;-73.238;2024-02-21T11:52:59;103192.26;;;19.50;33.00
83625;BME280;73589;41.158;-73.238;2024-02-21T11:55:30;103197.02;;;19.46;33.11
83625;BME280;73589;41.158;-73.238;2024-02-21T11:58:02;103195.75;;;19.42;33.09
83625;BME280;73589;41.158;-73.238;2024-02-21T12:00:32;103195.32;;;19.45;33.06
83625;BME280;73589;41.158;-73.238;2024-02-21T12:03:03;103198.18;;;20.23;32.14
83625;BME280;73589;41.158;-73.238;2024-02-21T12:05:34;103200.51;;;20.34;31.71
83625;BME280;73589;41.158;-73.238;2024-02-21T12:08:05;103203.72;;;20.39;31.69
83625;BME280;73589;41.158;-73.238;2024-02-21T12:10:35;103203.60;;;20.44;31.92
83625;BME280;73589;41.158;-73.238;2024-02-21T12:13:07;103200.65;;;20.15;33.81
83625;BME280;73589;41.158;-73.238;2024-02-21T12:15:35;103202.42;;;20.10;34.15
83625;BME280;73589;41.158;-73.238;2024-02-21T12:18:05;103201.31;;;20.12;34.07
83625;BME280;73589;41.158;-73.238;2024-02-21T12:20:36;103204.79;;;20.54;33.28
83625;BME280;73589;41.158;-73.238;2024-02-21T12:23:09;103205.23;;;20.56;32.97
83625;BME280;73589;41.158;-73.238;2024-02-21T12:25:36;103205.40;;;20.63;32.92
83625;BME280;73589;41.158;-73.238;2024-02-21T12:28:07;103200.79;;;20.60;33.09
83625;BME280;73589;41.158;-73.238;2024-02-21T12:30:38;103200.92;;;20.18;34.17
83625;BME280;73589;41.158;-73.238;2024-02-21T12:33:08;103201.05;;;20.28;34.21
83625;BME280;73589;41.158;-73.238;2024-02-21T12:35:39;103208.84;;;20.67;33.57
83625;BME280;73589;41.158;-73.238;2024-02-21T12:38:11;103206.73;;;20.78;33.22
83625;BME280;73589;41.158;-73.238;2024-02-21T12:40:40;103210.29;;;20.78;33.05
83625;BME280;73589;41.158;-73.238;2024-02-21T12:43:11;103215.19;;;20.71;33.18
83625;BME280;73589;41.158;-73.238;2024-02-21T12:45:42;103215.87;;;20.63;33.49
83625;BME280;73589;41.158;-73.238;2024-02-21T12:48:13;103219.90;;;20.67;33.41